sensor_id;sensor_type;location;lat;lon;timestamp;pressure;altitude;pressure_sealevel;temperature;humidity
19843;BME280;10082;51.038;6.992;2023-02-16T00:01:00;112171.53;;;-144.33;100.00
19843;BME280;10082;51.038;6.992;2023-02-16T00:03:28;112171.53;;;-144.33;100.00
19843;BME280;10082;51.038;6.992;2023-02-16T00:05:55;112171.53;;;-144.33;100.00
19843;BME280;10082;51.038;6.992;2023-02-16T00:08:22;112171.53;;;-144.33;100.00
19843;BME280;10082;51.038;6.992;2023-02-16T00:10:49;112171.53;;;-144.33;100.00
19843;BME280;10082;51.038;6.992;2023-02-16T00:13:34;111845.44;;;-144.33;100.00
19843;BME280;10082;51.038;6.992;2023-02-16T00:16:18;111801.16;;;-144.33;100.00
19843;BME280;10082;51.038;6.992;2023-02-16T00:18:46;111459.00;;;-144.33;100.00
19843;BME280;10082;51.038;6.992;2023-02-16T00:21:13;111575.75;;;-144.33;100.00
19843;BME280;10082;51.038;6.992;2023-02-16T00:23:41;111603.91;;;-144.33;100.00
19843;BME280;10082;51.038;6.992;2023-02-16T00:26:13;111374.47;;;-144.33;100.00
19843;BME280;10082;51.038;6.992;2023-02-16T00:28:42;111137.00;;;-144.33;100.00
19843;BME280;10082;51.038;6.992;2023-02-16T00:31:17;110941.78;;;-144.33;100.00
19843;BME280;10082;51.038;6.992;2023-02-16T00:33:45;111066.56;;;-144.33;100.00
19843;BME280;10082;51.038;6.992;2023-02-16T00:36:12;110921.66;;;-144.33;100.00
19843;BME280;10082;51.038;6.992;2023-02-16T00:38:40;110877.41;;;-144.33;100.00
19843;BME280;10082;51.038;6.992;2023-02-16T00:41:14;111135.00;;;-144.33;100.00
19843;BME280;10082;51.038;6.992;2023-02-16T00:44:04;110768.72;;;-144.33;100.00
19843;BME280;10082;51.038;6.992;2023-02-16T00:46:33;110863.31;;;-144.33;100.00
19843;BME280;10082;51.038;6.992;2023-02-16T00:49:00;110531.28;;;-144.33;100.00
19843;BME280;10082;51.038;6.992;2023-02-16T00:51:28;110748.59;;;-144.33;100.00
19843;BME280;10082;51.038;6.992;2023-02-16T00:53:55;110897.53;;;-144.33;100.00
19843;BME280;10082;51.038;6.992;2023-02-16T00:56:22;111102.78;;;-144.33;100.00
19843;BME280;10082;51.038;6.992;2023-02-16T00:58:50;111173.22;;;-144.33;100.00
19843;BME280;10082;51.038;6.992;2023-02-16T01:01:20;111450.97;;;-144.33;100.00
19843;BME280;10082;51.038;6.992;2023-02-16T01:03:51;111748.84;;;-144.33;100.00
19843;BME280;10082;51.038;6.992;2023-02-16T01:06:18;111927.97;;;-144.33;100.00
19843;BME280;10082;51.038;6.992;2023-02-16T01:09:11;112058.81;;;-144.33;100.00
19843;BME280;10082;51.038;6.992;2023-02-16T01:11:56;112169.53;;;-144.33;100.00
19843;BME280;10082;51.038;6.992;2023-02-16T01:14:23;112171.53;;;-144.33;100.00
19843;BME280;10082;51.038;6.992;2023-02-16T01:16:51;112171.53;;;-144.33;100.00
19843;BME280;10082;51.038;6.992;2023-02-16T01:19:20;112171.53;;;-144.33;100.00
19843;BME280;10082;51.038;6.992;2023-02-16T01:21:47;112171.53;;;-144.33;100.00
19843;BME280;10082;51.038;6.992;2023-02-16T01:24:15;112171.53;;;-144.33;100.00
19843;BME280;10082;51.038;6.992;2023-02-16T01:26:45;112171.53;;;-144.33;100.00
19843;BME280;10082;51.038;6.992;2023-02-16T01:29:16;112171.53;;;-144.33;100.00
19843;BME280;10082;51.038;6.992;2023-02-16T01:31:43;112171.53;;;-144.33;100.00
19843;BME280;10082;51.038;6.992;2023-02-16T01:34:11;112171.53;;;-144.33;100.00
19843;BME280;10082;51.038;6.992;2023-02-16T01:36:45;112171.53;;;-144.33;100.00
19843;BME280;10082;51.038;6.992;2023-02-16T01:39:16;112171.53;;;-144.33;100.00
19843;BME280;10082;51.038;6.992;2023-02-16T01:41:55;112171.53;;;-144.33;100.00
19843;BME280;10082;51.038;6.992;2023-02-16T01:44:28;112171.53;;;-144.33;100.00
19843;BME280;10082;51.038;6.992;2023-02-16T01:47:00;112171.53;;;-144.33;100.00
19843;BME280;10082;51.038;6.992;2023-02-16T01:49:30;112171.53;;;-144.33;100.00
19843;BME280;10082;51.038;6.992;2023-02-16T01:52:02;112171.53;;;-144.33;100.00
19843;BME280;10082;51.038;6.992;2023-02-16T01:54:35;112171.53;;;-144.33;100.00
19843;BME280;10082;51.038;6.992;2023-02-16T01:57:23;112171.53;;;-144.33;100.00
19843;BME280;10082;51.038;6.992;2023-02-16T02:00:10;112171.53;;;-144.33;100.00
19843;BME280;10082;51.038;6.992;2023-02-16T02:02:42;112171.53;;;-144.33;100.00
19843;BME280;10082;51.038;6.992;2023-02-16T02:05:18;112171.53;;;-144.33;100.00
19843;BME280;10082;51.038;6.992;2023-02-16T02:08:07;112171.53;;;-144.33;100.00
19843;BME280;10082;51.038;6.992;2023-02-16T02:10:43;112171.53;;;-144.33;100.00
19843;BME280;10082;51.038;6.992;2023-02-16T02:13:17;112171.53;;;-144.33;100.00
19843;BME280;10082;51.038;6.992;2023-02-16T02:15:46;112171.53;;;-144.33;100.00
19843;BME280;10082;51.038;6.992;2023-02-16T02:18:16;112171.53;;;-144.33;100.00
19843;BME280;10082;51.038;6.992;2023-02-16T02:20:56;112171.53;;;-144.33;100.00
19843;BME280;10082;51.038;6.992;2023-02-16T02:27:15;112171.53;;;-144.33;100.00
19843;BME280;10082;51.038;6.992;2023-02-16T02:30:18;112171.53;;;-144.33;100.00
19843;BME280;10082;51.038;6.992;2023-02-16T02:33:10;112171.53;;;-144.33;100.00
19843;BME280;10082;51.038;6.992;2023-02-16T02:35:48;112171.53;;;-144.33;100.00
19843;BME280;10082;51.038;6.992;2023-02-16T02:38:23;112171.53;;;-144.33;100.00
19843;BME280;10082;51.038;6.992;2023-02-16T02:41:00;112171.53;;;-144.33;100.00
19843;BME280;10082;51.038;6.992;2023-02-16T02:43:35;112171.53;;;-144.33;100.00
19843;BME280;10082;51.038;6.992;2023-02-16T02:46:06;112171.53;;;-144.33;100.00
19843;BME280;10082;51.038;6.992;2023-02-16T02:48:34;112171.53;;;-144.33;100.00
19843;BME280;10082;51.038;6.992;2023-02-16T02:51:07;112171.53;;;-144.33;100.00
19843;BME280;10082;51.038;6.992;2023-02-16T02:54:03;112171.53;;;-144.33;100.00
19843;BME280;10082;51.038;6.992;2023-02-16T02:56:58;112171.53;;;-144.33;100.00
19843;BME280;10082;51.038;6.992;2023-02-16T02:59:47;112171.53;;;-144.33;100.00
19843;BME280;10082;51.038;6.992;2023-02-16T03:02:34;112171.53;;;-144.33;100.00
19843;BME280;10082;51.038;6.992;2023-02-16T03:05:04;112171.53;;;-144.33;100.00
19843;BME280;10082;51.038;6.992;2023-02-16T03:07:36;112171.53;;;-144.33;100.00
19843;BME280;10082;51.038;6.992;2023-02-16T03:10:13;112171.53;;;-144.33;100.00
19843;BME280;10082;51.038;6.992;2023-02-16T03:12:59;112171.53;;;-144.33;100.00
19843;BME280;10082;51.038;6.992;2023-02-16T03:15:29;112171.53;;;-144.33;100.00
19843;BME280;10082;51.038;6.992;2023-02-16T03:17:58;112171.53;;;-144.33;100.00
19843;BME280;10082;51.038;6.992;2023-02-16T03:20:46;112171.53;;;-144.33;100.00
19843;BME280;10082;51.038;6.992;2023-02-16T03:23:31;112171.53;;;-144.33;100.00
19843;BME280;10082;51.038;6.992;2023-02-16T03:26:17;112171.53;;;-144.33;100.00
19843;BME280;10082;51.038;6.992;2023-02-16T03:29:02;112171.53;;;-144.33;100.00
19843;BME280;10082;51.038;6.992;2023-02-16T03:31:45;112171.53;;;-144.33;100.00
19843;BME280;10082;51.038;6.992;2023-02-16T03:34:13;112171.53;;;-144.33;100.00
19843;BME280;10082;51.038;6.992;2023-02-16T03:36:45;112171.53;;;-144.33;100.00
19843;BME280;10082;51.038;6.992;2023-02-16T03:39:13;112171.53;;;-144.33;100.00
19843;BME280;10082;51.038;6.992;2023-02-16T03:41:42;112171.53;;;-144.33;100.00
19843;BME280;10082;51.038;6.992;2023-02-16T03:44:11;112171.53;;;-144.33;100.00
19843;BME280;10082;51.038;6.992;2023-02-16T03:46:38;112171.53;;;-144.33;100.00
19843;BME280;10082;51.038;6.992;2023-02-16T03:49:07;112171.53;;;-144.33;100.00
19843;BME280;10082;51.038;6.992;2023-02-16T03:51:34;112171.53;;;-144.33;100.00
19843;BME280;10082;51.038;6.992;2023-02-16T03:54:01;112171.53;;;-144.33;100.00
19843;BME280;10082;51.038;6.992;2023-02-16T03:56:28;112171.53;;;-144.33;100.00
19843;BME280;10082;51.038;6.992;2023-02-16T03:58:55;112171.53;;;-144.33;100.00
19843;BME280;10082;51.038;6.992;2023-02-16T04:01:22;112171.53;;;-144.33;100.00
19843;BME280;10082;51.038;6.992;2023-02-16T04:03:49;112171.53;;;-144.33;100.00
19843;BME280;10082;51.038;6.992;2023-02-16T04:06:17;112171.53;;;-144.33;100.00
19843;BME280;10082;51.038;6.992;2023-02-16T04:08:45;112171.53;;;-144.33;100.00
19843;BME280;10082;51.038;6.992;2023-02-16T04:11:12;112171.53;;;-144.33;100.00
19843;BME280;10082;51.038;6.992;2023-02-16T04:13:56;112171.53;;;-144.33;100.00
19843;BME280;10082;51.038;6.992;2023-02-16T04:16:23;112171.53;;;-144.33;100.00
19843;BME280;10082;51.038;6.992;2023-02-16T04:18:50;112171.53;;;-144.33;100.00
19843;BME280;10082;51.038;6.992;2023-02-16T04:21:19;112171.53;;;-144.33;100.00
19843;BME280;10082;51.038;6.992;2023-02-16T04:23:46;112171.53;;;-144.33;100.00
19843;BME280;10082;51.038;6.992;2023-02-16T04:26:13;112171.53;;;-144.33;100.00
19843;BME280;10082;51.038;6.992;2023-02-16T04:28:40;112171.53;;;-144.33;100.00
19843;BME280;10082;51.038;6.992;2023-02-16T04:31:07;112171.53;;;-144.33;100.00
19843;BME280;10082;51.038;6.992;2023-02-16T04:33:34;112171.53;;;-144.33;100.00
19843;BME280;10082;51.038;6.992;2023-02-16T04:36:01;112171.53;;;-144.33;100.00
19843;BME280;10082;51.038;6.992;2023-02-16T04:38:30;112171.53;;;-144.33;100.00
19843;BME280;10082;51.038;6.992;2023-02-16T04:40:57;112171.53;;;-144.33;100.00
19843;BME280;10082;51.038;6.992;2023-02-16T04:43:24;112171.53;;;-144.33;100.00
19843;BME280;10082;51.038;6.992;2023-02-16T04:45:51;112171.53;;;-144.33;100.00
19843;BME280;10082;51.038;6.992;2023-02-16T04:48:18;112171.53;;;-144.33;100.00
19843;BME280;10082;51.038;6.992;2023-02-16T04:50:45;112171.53;;;-144.33;100.00
19843;BME280;10082;51.038;6.992;2023-02-16T04:53:12;112171.53;;;-144.33;100.00
19843;BME280;10082;51.038;6.992;2023-02-16T04:55:44;112171.53;;;-144.33;100.00
19843;BME280;10082;51.038;6.992;2023-02-16T04:58:11;112171.53;;;-144.33;100.00
19843;BME280;10082;51.038;6.992;2023-02-16T05:00:38;112171.53;;;-144.33;100.00
19843;BME280;10082;51.038;6.992;2023-02-16T05:03:05;112171.53;;;-144.33;100.00
19843;BME280;10082;51.038;6.992;2023-02-16T05:05:32;112171.53;;;-144.33;100.00
19843;BME280;10082;51.038;6.992;2023-02-16T05:07:59;112171.53;;;-144.33;100.00
19843;BME280;10082;51.038;6.992;2023-02-16T05:10:26;112171.53;;;-144.33;100.00
19843;BME280;10082;51.038;6.992;2023-02-16T05:12:55;112171.53;;;-144.33;100.00
19843;BME280;10082;51.038;6.992;2023-02-16T05:15:39;112171.53;;;-144.33;100.00
19843;BME280;10082;51.038;6.992;2023-02-16T05:18:06;112171.53;;;-144.33;100.00
19843;BME280;10082;51.038;6.992;2023-02-16T05:20:33;112171.53;;;-144.33;100.00
19843;BME280;10082;51.038;6.992;2023-02-16T05:23:18;112171.53;;;-144.33;100.00
19843;BME280;10082;51.038;6.992;2023-02-16T05:25:45;112171.53;;;-144.33;100.00
19843;BME280;10082;51.038;6.992;2023-02-16T05:28:14;112171.53;;;-144.33;100.00
19843;BME280;10082;51.038;6.992;2023-02-16T05:30:41;112171.53;;;-144.33;100.00
19843;BME280;10082;51.038;6.992;2023-02-16T05:33:08;112171.53;;;-144.33;100.00
19843;BME280;10082;51.038;6.992;2023-02-16T05:35:35;112171.53;;;-144.33;100.00
19843;BME280;10082;51.038;6.992;2023-02-16T05:38:02;112171.53;;;-144.33;100.00
19843;BME280;10082;51.038;6.992;2023-02-16T05:40:29;112171.53;;;-144.33;100.00
19843;BME280;10082;51.038;6.992;2023-02-16T05:42:57;112171.53;;;-144.33;100.00
19843;BME280;10082;51.038;6.992;2023-02-16T05:45:25;112171.53;;;-144.33;100.00
19843;BME280;10082;51.038;6.992;2023-02-16T05:47:52;112171.53;;;-144.33;100.00
19843;BME280;10082;51.038;6.992;2023-02-16T05:50:20;112171.53;;;-144.33;100.00
19843;BME280;10082;51.038;6.992;2023-02-16T05:52:48;112171.53;;;-144.33;100.00
19843;BME280;10082;51.038;6.992;2023-02-16T05:55:14;112171.53;;;-144.33;100.00
19843;BME280;10082;51.038;6.992;2023-02-16T05:57:42;112171.53;;;-144.33;100.00
19843;BME280;10082;51.038;6.992;2023-02-16T06:00:10;112171.53;;;-144.33;100.00
19843;BME280;10082;51.038;6.992;2023-02-16T06:02:38;112171.53;;;-144.33;100.00
19843;BME280;10082;51.038;6.992;2023-02-16T06:05:06;112171.53;;;-144.33;100.00
19843;BME280;10082;51.038;6.992;2023-02-16T06:07:33;112171.53;;;-144.33;100.00
19843;BME280;10082;51.038;6.992;2023-02-16T06:10:00;112171.53;;;-144.33;100.00
19843;BME280;10082;51.038;6.992;2023-02-16T06:12:33;112171.53;;;-144.33;100.00
19843;BME280;10082;51.038;6.992;2023-02-16T06:15:00;112171.53;;;-144.33;100.00
19843;BME280;10082;51.038;6.992;2023-02-16T06:17:27;112171.53;;;-144.33;100.00
19843;BME280;10082;51.038;6.992;2023-02-16T06:19:56;112171.53;;;-144.33;100.00
19843;BME280;10082;51.038;6.992;2023-02-16T06:22:23;112171.53;;;-144.33;100.00
19843;BME280;10082;51.038;6.992;2023-02-16T06:24:50;112171.53;;;-144.33;100.00
19843;BME280;10082;51.038;6.992;2023-02-16T06:27:17;112171.53;;;-144.33;100.00
19843;BME280;10082;51.038;6.992;2023-02-16T06:29:44;112171.53;;;-144.33;100.00
19843;BME280;10082;51.038;6.992;2023-02-16T06:32:11;112171.53;;;-144.33;100.00
19843;BME280;10082;51.038;6.992;2023-02-16T06:34:42;112171.53;;;-144.33;100.00
19843;BME280;10082;51.038;6.992;2023-02-16T06:37:10;112171.53;;;-144.33;100.00
19843;BME280;10082;51.038;6.992;2023-02-16T06:39:37;112171.53;;;-144.33;100.00
19843;BME280;10082;51.038;6.992;2023-02-16T06:42:04;112171.53;;;-144.33;100.00
19843;BME280;10082;51.038;6.992;2023-02-16T06:44:31;112171.53;;;-144.33;100.00
19843;BME280;10082;51.038;6.992;2023-02-16T06:46:58;112171.53;;;-144.33;100.00
19843;BME280;10082;51.038;6.992;2023-02-16T06:49:25;112171.53;;;-144.33;100.00
19843;BME280;10082;51.038;6.992;2023-02-16T06:51:52;112171.53;;;-144.33;100.00
19843;BME280;10082;51.038;6.992;2023-02-16T06:54:21;112171.53;;;-144.33;100.00
19843;BME280;10082;51.038;6.992;2023-02-16T07:00:15;112171.53;;;-144.33;100.00
19843;BME280;10082;51.038;6.992;2023-02-16T07:02:42;112171.53;;;-144.33;100.00
19843;BME280;10082;51.038;6.992;2023-02-16T07:05:10;112171.53;;;-144.33;100.00
19843;BME280;10082;51.038;6.992;2023-02-16T07:07:37;112171.53;;;-144.33;100.00
19843;BME280;10082;51.038;6.992;2023-02-16T07:10:07;112171.53;;;-144.33;100.00
19843;BME280;10082;51.038;6.992;2023-02-16T07:12:34;112171.53;;;-144.33;100.00
19843;BME280;10082;51.038;6.992;2023-02-16T07:15:01;112171.53;;;-144.33;100.00
19843;BME280;10082;51.038;6.992;2023-02-16T07:17:28;112171.53;;;-144.33;100.00
19843;BME280;10082;51.038;6.992;2023-02-16T07:19:55;112171.53;;;-144.33;100.00
19843;BME280;10082;51.038;6.992;2023-02-16T07:22:22;112171.53;;;-144.33;100.00
19843;BME280;10082;51.038;6.992;2023-02-16T07:24:49;112171.53;;;-144.33;100.00
19843;BME280;10082;51.038;6.992;2023-02-16T07:27:18;112171.53;;;-144.33;100.00
19843;BME280;10082;51.038;6.992;2023-02-16T07:29:45;112171.53;;;-144.33;100.00
19843;BME280;10082;51.038;6.992;2023-02-16T07:32:12;112171.53;;;-144.33;100.00
19843;BME280;10082;51.038;6.992;2023-02-16T07:34:39;112171.53;;;-144.33;100.00
19843;BME280;10082;51.038;6.992;2023-02-16T07:37:06;112171.53;;;-144.33;100.00
19843;BME280;10082;51.038;6.992;2023-02-16T07:39:33;112171.53;;;-144.33;100.00
19843;BME280;10082;51.038;6.992;2023-02-16T07:42:03;112171.53;;;-144.33;100.00
19843;BME280;10082;51.038;6.992;2023-02-16T07:44:34;112171.53;;;-144.33;100.00
19843;BME280;10082;51.038;6.992;2023-02-16T07:47:01;112171.53;;;-144.33;100.00
19843;BME280;10082;51.038;6.992;2023-02-16T07:49:27;112171.53;;;-144.33;100.00
19843;BME280;10082;51.038;6.992;2023-02-16T07:51:55;112171.53;;;-144.33;100.00
19843;BME280;10082;51.038;6.992;2023-02-16T07:54:22;112171.53;;;-144.33;100.00
19843;BME280;10082;51.038;6.992;2023-02-16T07:56:49;112171.53;;;-144.33;100.00
19843;BME280;10082;51.038;6.992;2023-02-16T07:59:16;112171.53;;;-144.33;100.00
19843;BME280;10082;51.038;6.992;2023-02-16T08:01:44;112171.53;;;-144.33;100.00
19843;BME280;10082;51.038;6.992;2023-02-16T08:04:14;112171.53;;;-144.33;100.00
19843;BME280;10082;51.038;6.992;2023-02-16T08:06:41;112171.53;;;-144.33;100.00
19843;BME280;10082;51.038;6.992;2023-02-16T08:09:08;112171.53;;;-144.33;100.00
19843;BME280;10082;51.038;6.992;2023-02-16T08:11:35;112171.53;;;-144.33;100.00
19843;BME280;10082;51.038;6.992;2023-02-16T08:14:03;112171.53;;;-144.33;100.00
19843;BME280;10082;51.038;6.992;2023-02-16T08:16:30;112171.53;;;-144.33;100.00
19843;BME280;10082;51.038;6.992;2023-02-16T08:18:59;112171.53;;;-144.33;100.00
19843;BME280;10082;51.038;6.992;2023-02-16T08:21:30;112171.53;;;-144.33;100.00
19843;BME280;10082;51.038;6.992;2023-02-16T08:23:58;112171.53;;;-144.33;100.00
19843;BME280;10082;51.038;6.992;2023-02-16T08:26:33;112171.53;;;-144.33;100.00
19843;BME280;10082;51.038;6.992;2023-02-16T08:29:01;112171.53;;;-144.33;100.00
19843;BME280;10082;51.038;6.992;2023-02-16T08:31:30;112171.53;;;-144.33;100.00
19843;BME280;10082;51.038;6.992;2023-02-16T08:34:01;112171.53;;;-144.33;100.00
19843;BME280;10082;51.038;6.992;2023-02-16T08:36:30;112171.53;;;-144.33;100.00
19843;BME280;10082;51.038;6.992;2023-02-16T08:38:58;112171.53;;;-144.33;100.00
19843;BME280;10082;51.038;6.992;2023-02-16T08:41:29;112171.53;;;-144.33;100.00
19843;BME280;10082;51.038;6.992;2023-02-16T08:43:56;112171.53;;;-144.33;100.00
19843;BME280;10082;51.038;6.992;2023-02-16T08:46:26;112171.53;;;-144.33;100.00
19843;BME280;10082;51.038;6.992;2023-02-16T08:48:54;112171.53;;;-144.33;100.00
19843;BME280;10082;51.038;6.992;2023-02-16T08:51:26;112171.53;;;-144.33;100.00
19843;BME280;10082;51.038;6.992;2023-02-16T08:53:53;112171.53;;;-144.33;100.00
19843;BME280;10082;51.038;6.992;2023-02-16T08:56:21;112171.53;;;-144.33;100.00
19843;BME280;10082;51.038;6.992;2023-02-16T08:58:48;112171.53;;;-144.33;100.00
19843;BME280;10082;51.038;6.992;2023-02-16T09:01:15;112171.53;;;-144.33;100.00
19843;BME280;10082;51.038;6.992;2023-02-16T09:03:44;112171.53;;;-144.33;100.00
19843;BME280;10082;51.038;6.992;2023-02-16T09:06:12;112171.53;;;-144.33;100.00
19843;BME280;10082;51.038;6.992;2023-02-16T09:08:42;112171.53;;;-144.33;100.00
19843;BME280;10082;51.038;6.992;2023-02-16T09:11:12;112171.53;;;-144.33;100.00
19843;BME280;10082;51.038;6.992;2023-02-16T09:13:40;112171.53;;;-144.33;100.00
19843;BME280;10082;51.038;6.992;2023-02-16T09:16:10;112171.53;;;-144.33;100.00
19843;BME280;10082;51.038;6.992;2023-02-16T09:18:38;112171.53;;;-144.33;100.00
19843;BME280;10082;51.038;6.992;2023-02-16T09:21:07;112171.53;;;-144.33;100.00
19843;BME280;10082;51.038;6.992;2023-02-16T09:23:35;112171.53;;;-144.33;100.00
19843;BME280;10082;51.038;6.992;2023-02-16T09:26:04;112171.53;;;-144.33;100.00
19843;BME280;10082;51.038;6.992;2023-02-16T09:28:32;112171.53;;;-144.33;100.00
19843;BME280;10082;51.038;6.992;2023-02-16T09:30:59;112171.53;;;-144.33;100.00
19843;BME280;10082;51.038;6.992;2023-02-16T09:33:26;112171.53;;;-144.33;100.00
19843;BME280;10082;51.038;6.992;2023-02-16T09:35:53;112171.53;;;-144.33;100.00
19843;BME280;10082;51.038;6.992;2023-02-16T09:38:20;112171.53;;;-144.33;100.00
19843;BME280;10082;51.038;6.992;2023-02-16T09:40:47;112171.53;;;-144.33;100.00
19843;BME280;10082;51.038;6.992;2023-02-16T09:43:25;112171.53;;;-144.33;100.00
19843;BME280;10082;51.038;6.992;2023-02-16T09:45:55;112171.53;;;-144.33;100.00
19843;BME280;10082;51.038;6.992;2023-02-16T09:48:31;112171.53;;;-144.33;100.00
19843;BME280;10082;51.038;6.992;2023-02-16T09:51:00;112171.53;;;-144.33;100.00
19843;BME280;10082;51.038;6.992;2023-02-16T09:53:33;112171.53;;;-144.33;100.00
19843;BME280;10082;51.038;6.992;2023-02-16T09:56:07;112171.53;;;-144.33;100.00
19843;BME280;10082;51.038;6.992;2023-02-16T09:58:44;112171.53;;;-144.33;100.00
19843;BME280;10082;51.038;6.992;2023-02-16T10:01:19;112171.53;;;-144.33;100.00
19843;BME280;10082;51.038;6.992;2023-02-16T10:04:02;112171.53;;;-144.33;100.00
19843;BME280;10082;51.038;6.992;2023-02-16T10:06:45;112171.53;;;-144.33;100.00
19843;BME280;10082;51.038;6.992;2023-02-16T10:09:17;112171.53;;;-144.33;100.00
19843;BME280;10082;51.038;6.992;2023-02-16T10:11:48;112171.53;;;-144.33;100.00
19843;BME280;10082;51.038;6.992;2023-02-16T10:14:30;112171.53;;;-144.33;100.00
19843;BME280;10082;51.038;6.992;2023-02-16T10:17:04;112171.53;;;-144.33;100.00
19843;BME280;10082;51.038;6.992;2023-02-16T10:19:37;112171.53;;;-144.33;100.00
19843;BME280;10082;51.038;6.992;2023-02-16T10:22:07;112171.53;;;-144.33;100.00
19843;BME280;10082;51.038;6.992;2023-02-16T10:24:41;112171.53;;;-144.33;100.00
19843;BME280;10082;51.038;6.992;2023-02-16T10:27:14;112171.53;;;-144.33;100.00
19843;BME280;10082;51.038;6.992;2023-02-16T10:29:43;112171.53;;;-144.33;100.00
19843;BME280;10082;51.038;6.992;2023-02-16T10:32:19;112171.53;;;-144.33;100.00
19843;BME280;10082;51.038;6.992;2023-02-16T10:34:50;112171.53;;;-144.33;100.00
19843;BME280;10082;51.038;6.992;2023-02-16T10:37:45;112171.53;;;-144.33;100.00
19843;BME280;10082;51.038;6.992;2023-02-16T10:40:24;112171.53;;;-144.33;100.00
19843;BME280;10082;51.038;6.992;2023-02-16T10:42:58;112171.53;;;-144.33;100.00
19843;BME280;10082;51.038;6.992;2023-02-16T10:45:32;112171.53;;;-144.33;100.00
19843;BME280;10082;51.038;6.992;2023-02-16T10:48:02;112171.53;;;-144.33;100.00
19843;BME280;10082;51.038;6.992;2023-02-16T10:50:32;112171.53;;;-144.33;100.00
19843;BME280;10082;51.038;6.992;2023-02-16T10:53:05;112171.53;;;-144.33;100.00
19843;BME280;10082;51.038;6.992;2023-02-16T10:55:36;112171.53;;;-144.33;100.00
19843;BME280;10082;51.038;6.992;2023-02-16T10:58:03;112171.53;;;-144.33;100.00
19843;BME280;10082;51.038;6.992;2023-02-16T11:00:43;112171.53;;;-144.33;100.00
19843;BME280;10082;51.038;6.992;2023-02-16T11:03:13;112171.53;;;-144.33;100.00
19843;BME280;10082;51.038;6.992;2023-02-16T11:05:41;112171.53;;;-144.33;100.00
19843;BME280;10082;51.038;6.992;2023-02-16T11:08:08;112171.53;;;-144.33;100.00
19843;BME280;10082;51.038;6.992;2023-02-16T11:10:41;112171.53;;;-144.33;100.00
19843;BME280;10082;51.038;6.992;2023-02-16T11:13:23;112171.53;;;-144.33;100.00
19843;BME280;10082;51.038;6.992;2023-02-16T11:15:55;112171.53;;;-144.33;100.00
19843;BME280;10082;51.038;6.992;2023-02-16T11:18:28;112171.53;;;-144.33;100.00
19843;BME280;10082;51.038;6.992;2023-02-16T11:20:57;112171.53;;;-144.33;100.00
19843;BME280;10082;51.038;6.992;2023-02-16T11:23:27;112171.53;;;-144.33;100.00
19843;BME280;10082;51.038;6.992;2023-02-16T11:25:57;112171.53;;;-144.33;100.00
19843;BME280;10082;51.038;6.992;2023-02-16T11:28:26;112171.53;;;-144.33;100.00
19843;BME280;10082;51.038;6.992;2023-02-16T11:31:02;112171.53;;;-144.33;100.00
19843;BME280;10082;51.038;6.992;2023-02-16T11:33:31;112171.53;;;-144.33;100.00
19843;BME280;10082;51.038;6.992;2023-02-16T11:35:59;112171.53;;;-144.33;100.00
19843;BME280;10082;51.038;6.992;2023-02-16T11:38:31;112171.53;;;-144.33;100.00
19843;BME280;10082;51.038;6.992;2023-02-16T11:41:01;112171.53;;;-144.33;100.00
19843;BME280;10082;51.038;6.992;2023-02-16T11:43:31;112171.53;;;-144.33;100.00
19843;BME280;10082;51.038;6.992;2023-02-16T11:46:04;112171.53;;;-144.33;100.00
19843;BME280;10082;51.038;6.992;2023-02-16T11:48:33;112171.53;;;-144.33;100.00
19843;BME280;10082;51.038;6.992;2023-02-16T11:51:03;112171.53;;;-144.33;100.00
19843;BME280;10082;51.038;6.992;2023-02-16T11:53:32;112171.53;;;-144.33;100.00
19843;BME280;10082;51.038;6.992;2023-02-16T11:56:19;112171.53;;;-144.33;100.00
19843;BME280;10082;51.038;6.992;2023-02-16T11:59:03;112171.53;;;-144.33;100.00
19843;BME280;10082;51.038;6.992;2023-02-16T12:01:43;112171.53;;;-144.33;100.00
19843;BME280;10082;51.038;6.992;2023-02-16T12:04:22;112171.53;;;-144.33;100.00
19843;BME280;10082;51.038;6.992;2023-02-16T12:07:04;112171.53;;;-144.33;100.00
19843;BME280;10082;51.038;6.992;2023-02-16T12:09:46;112171.53;;;-144.33;100.00
19843;BME280;10082;51.038;6.992;2023-02-16T12:12:17;112171.53;;;-144.33;100.00
19843;BME280;10082;51.038;6.992;2023-02-16T12:14:56;112171.53;;;-144.33;100.00
19843;BME280;10082;51.038;6.992;2023-02-16T12:17:41;112171.53;;;-144.33;100.00
19843;BME280;10082;51.038;6.992;2023-02-16T12:20:21;112171.53;;;-144.33;100.00
19843;BME280;10082;51.038;6.992;2023-02-16T12:22:59;112171.53;;;-144.33;100.00
19843;BME280;10082;51.038;6.992;2023-02-16T12:25:35;112171.53;;;-144.33;100.00
19843;BME280;10082;51.038;6.992;2023-02-16T12:28:10;112171.53;;;-144.33;100.00
19843;BME280;10082;51.038;6.992;2023-02-16T12:30:50;112171.53;;;-144.33;100.00
19843;BME280;10082;51.038;6.992;2023-02-16T12:33:35;112171.53;;;-144.33;100.00
19843;BME280;10082;51.038;6.992;2023-02-16T12:39:15;112171.53;;;-144.33;100.00
19843;BME280;10082;51.038;6.992;2023-02-16T12:42:01;112171.53;;;-144.33;100.00
19843;BME280;10082;51.038;6.992;2023-02-16T12:44:34;112171.53;;;-144.33;100.00
19843;BME280;10082;51.038;6.992;2023-02-16T12:47:10;112171.53;;;-144.33;100.00
19843;BME280;10082;51.038;6.992;2023-02-16T12:49:46;112171.53;;;-144.33;100.00
19843;BME280;10082;51.038;6.992;2023-02-16T12:52:26;112171.53;;;-144.33;100.00